sensor_id;sensor_type;location;lat;lon;timestamp;P1;durP1;ratioP1;P2;durP2;ratioP2
67544;SDS011;54380;47.770;11.150;2024-02-16T00:02:06;8.48;;;1.48;;
67544;SDS011;54380;47.770;11.150;2024-02-16T00:04:32;8.50;;;1.85;;
67544;SDS011;54380;47.770;11.150;2024-02-16T00:07:00;9.63;;;1.55;;
67544;SDS011;54380;47.770;11.150;2024-02-16T00:09:27;9.18;;;1.95;;
67544;SDS011;54380;47.770;11.150;2024-02-16T00:11:54;9.25;;;1.70;;
67544;SDS011;54380;47.770;11.150;2024-02-16T00:14:21;8.25;;;1.67;;
67544;SDS011;54380;47.770;11.150;2024-02-16T00:16:48;8.45;;;1.40;;
67544;SDS011;54380;47.770;11.150;2024-02-16T00:19:16;11.65;;;1.80;;
67544;SDS011;54380;47.770;11.150;2024-02-16T00:21:43;11.15;;;1.48;;
67544;SDS011;54380;47.770;11.150;2024-02-16T00:24:10;10.45;;;1.17;;
67544;SDS011;54380;47.770;11.150;2024-02-16T00:26:36;7.63;;;1.15;;
67544;SDS011;54380;47.770;11.150;2024-02-16T00:29:06;6.35;;;1.00;;
67544;SDS011;54380;47.770;11.150;2024-02-16T00:31:32;7.72;;;1.33;;
67544;SDS011;54380;47.770;11.150;2024-02-16T00:33:59;7.72;;;1.60;;
67544;SDS011;54380;47.770;11.150;2024-02-16T00:36:28;6.93;;;1.15;;
67544;SDS011;54380;47.770;11.150;2024-02-16T00:38:56;8.85;;;1.38;;
67544;SDS011;54380;47.770;11.150;2024-02-16T00:41:24;7.25;;;1.08;;
67544;SDS011;54380;47.770;11.150;2024-02-16T00:43:50;8.05;;;1.42;;
67544;SDS011;54380;47.770;11.150;2024-02-16T00:46:18;7.13;;;0.95;;
67544;SDS011;54380;47.770;11.150;2024-02-16T00:48:45;8.15;;;1.10;;
67544;SDS011;54380;47.770;11.150;2024-02-16T00:51:13;6.53;;;1.42;;
67544;SDS011;54380;47.770;11.150;2024-02-16T00:53:41;8.05;;;1.17;;
67544;SDS011;54380;47.770;11.150;2024-02-16T00:56:08;9.90;;;1.35;;
67544;SDS011;54380;47.770;11.150;2024-02-16T00:58:35;7.97;;;1.17;;
67544;SDS011;54380;47.770;11.150;2024-02-16T01:01:03;7.53;;;1.13;;
67544;SDS011;54380;47.770;11.150;2024-02-16T01:03:30;6.30;;;0.95;;
67544;SDS011;54380;47.770;11.150;2024-02-16T01:05:57;5.47;;;0.85;;
67544;SDS011;54380;47.770;11.150;2024-02-16T01:08:24;8.45;;;1.90;;
67544;SDS011;54380;47.770;11.150;2024-02-16T01:10:52;9.07;;;0.95;;
67544;SDS011;54380;47.770;11.150;2024-02-16T01:13:19;7.55;;;1.33;;
67544;SDS011;54380;47.770;11.150;2024-02-16T01:15:46;5.95;;;1.30;;
67544;SDS011;54380;47.770;11.150;2024-02-16T01:18:13;6.72;;;1.10;;
67544;SDS011;54380;47.770;11.150;2024-02-16T01:20:39;6.05;;;1.17;;
67544;SDS011;54380;47.770;11.150;2024-02-16T01:23:06;5.95;;;1.02;;
67544;SDS011;54380;47.770;11.150;2024-02-16T01:25:33;5.85;;;0.90;;
67544;SDS011;54380;47.770;11.150;2024-02-16T01:28:01;6.53;;;0.85;;
67544;SDS011;54380;47.770;11.150;2024-02-16T01:30:28;7.97;;;0.98;;
67544;SDS011;54380;47.770;11.150;2024-02-16T01:32:55;6.18;;;1.00;;
67544;SDS011;54380;47.770;11.150;2024-02-16T01:35:21;6.22;;;1.30;;
67544;SDS011;54380;47.770;11.150;2024-02-16T01:37:48;6.70;;;0.93;;
67544;SDS011;54380;47.770;11.150;2024-02-16T01:40:15;6.63;;;1.38;;
67544;SDS011;54380;47.770;11.150;2024-02-16T01:42:44;5.80;;;0.90;;
67544;SDS011;54380;47.770;11.150;2024-02-16T01:45:13;6.30;;;1.05;;
67544;SDS011;54380;47.770;11.150;2024-02-16T01:47:40;16.00;;;3.17;;
67544;SDS011;54380;47.770;11.150;2024-02-16T01:50:10;7.18;;;0.95;;
67544;SDS011;54380;47.770;11.150;2024-02-16T01:52:37;5.13;;;0.93;;
67544;SDS011;54380;47.770;11.150;2024-02-16T01:55:04;6.75;;;0.93;;
67544;SDS011;54380;47.770;11.150;2024-02-16T01:57:35;7.65;;;1.08;;
67544;SDS011;54380;47.770;11.150;2024-02-16T02:00:02;6.32;;;1.08;;
67544;SDS011;54380;47.770;11.150;2024-02-16T02:02:31;7.50;;;1.02;;
67544;SDS011;54380;47.770;11.150;2024-02-16T02:04:58;8.48;;;1.30;;
67544;SDS011;54380;47.770;11.150;2024-02-16T02:07:26;7.38;;;0.90;;
67544;SDS011;54380;47.770;11.150;2024-02-16T02:09:53;6.95;;;1.30;;
67544;SDS011;54380;47.770;11.150;2024-02-16T02:12:21;7.07;;;1.02;;
67544;SDS011;54380;47.770;11.150;2024-02-16T02:14:49;9.45;;;1.45;;
67544;SDS011;54380;47.770;11.150;2024-02-16T02:17:16;7.95;;;1.33;;
67544;SDS011;54380;47.770;11.150;2024-02-16T02:19:45;5.55;;;1.00;;
67544;SDS011;54380;47.770;11.150;2024-02-16T02:22:15;5.72;;;0.90;;
67544;SDS011;54380;47.770;11.150;2024-02-16T02:27:10;5.70;;;0.82;;
67544;SDS011;54380;47.770;11.150;2024-02-16T02:29:37;4.95;;;0.82;;
67544;SDS011;54380;47.770;11.150;2024-02-16T02:32:04;6.82;;;1.23;;
67544;SDS011;54380;47.770;11.150;2024-02-16T02:34:31;6.43;;;1.25;;
67544;SDS011;54380;47.770;11.150;2024-02-16T02:36:58;7.47;;;1.27;;
67544;SDS011;54380;47.770;11.150;2024-02-16T02:39:27;5.60;;;0.82;;
67544;SDS011;54380;47.770;11.150;2024-02-16T02:41:54;6.32;;;1.00;;
67544;SDS011;54380;47.770;11.150;2024-02-16T02:44:21;6.50;;;0.93;;
67544;SDS011;54380;47.770;11.150;2024-02-16T02:46:47;7.05;;;0.95;;
67544;SDS011;54380;47.770;11.150;2024-02-16T02:49:14;8.23;;;1.52;;
67544;SDS011;54380;47.770;11.150;2024-02-16T02:51:41;6.28;;;0.93;;
67544;SDS011;54380;47.770;11.150;2024-02-16T02:54:08;5.03;;;1.00;;
67544;SDS011;54380;47.770;11.150;2024-02-16T02:56:36;7.63;;;1.25;;
67544;SDS011;54380;47.770;11.150;2024-02-16T02:59:03;5.28;;;0.82;;
67544;SDS011;54380;47.770;11.150;2024-02-16T03:01:32;4.75;;;0.57;;
67544;SDS011;54380;47.770;11.150;2024-02-16T03:04:00;5.43;;;0.82;;
67544;SDS011;54380;47.770;11.150;2024-02-16T03:06:27;6.97;;;0.98;;
67544;SDS011;54380;47.770;11.150;2024-02-16T03:08:54;5.72;;;0.82;;
67544;SDS011;54380;47.770;11.150;2024-02-16T03:11:21;6.50;;;0.75;;
67544;SDS011;54380;47.770;11.150;2024-02-16T03:13:49;6.20;;;1.05;;
67544;SDS011;54380;47.770;11.150;2024-02-16T03:16:16;5.93;;;1.40;;
67544;SDS011;54380;47.770;11.150;2024-02-16T03:18:43;11.25;;;1.38;;
67544;SDS011;54380;47.770;11.150;2024-02-16T03:21:12;6.22;;;1.10;;
67544;SDS011;54380;47.770;11.150;2024-02-16T03:23:41;6.32;;;0.90;;
67544;SDS011;54380;47.770;11.150;2024-02-16T03:26:13;6.93;;;1.08;;
67544;SDS011;54380;47.770;11.150;2024-02-16T03:28:40;5.50;;;0.85;;
67544;SDS011;54380;47.770;11.150;2024-02-16T03:31:14;5.13;;;0.82;;
67544;SDS011;54380;47.770;11.150;2024-02-16T03:33:43;6.30;;;0.75;;
67544;SDS011;54380;47.770;11.150;2024-02-16T03:36:10;11.27;;;1.92;;
67544;SDS011;54380;47.770;11.150;2024-02-16T03:38:40;6.32;;;1.20;;
67544;SDS011;54380;47.770;11.150;2024-02-16T03:41:08;5.18;;;0.95;;
67544;SDS011;54380;47.770;11.150;2024-02-16T03:43:38;8.13;;;1.10;;
67544;SDS011;54380;47.770;11.150;2024-02-16T03:46:04;4.72;;;0.70;;
67544;SDS011;54380;47.770;11.150;2024-02-16T03:48:32;5.38;;;0.88;;
67544;SDS011;54380;47.770;11.150;2024-02-16T03:50:59;8.40;;;1.25;;
67544;SDS011;54380;47.770;11.150;2024-02-16T03:53:27;7.75;;;1.20;;
67544;SDS011;54380;47.770;11.150;2024-02-16T03:55:54;7.88;;;1.23;;
67544;SDS011;54380;47.770;11.150;2024-02-16T03:58:21;7.82;;;1.52;;
67544;SDS011;54380;47.770;11.150;2024-02-16T04:00:47;7.78;;;1.75;;
67544;SDS011;54380;47.770;11.150;2024-02-16T04:03:19;8.27;;;1.40;;
67544;SDS011;54380;47.770;11.150;2024-02-16T04:05:47;9.93;;;1.30;;
67544;SDS011;54380;47.770;11.150;2024-02-16T04:08:14;4.72;;;0.80;;
67544;SDS011;54380;47.770;11.150;2024-02-16T04:10:41;7.82;;;1.15;;
67544;SDS011;54380;47.770;11.150;2024-02-16T04:13:08;8.00;;;1.65;;
67544;SDS011;54380;47.770;11.150;2024-02-16T04:15:34;13.05;;;2.10;;
67544;SDS011;54380;47.770;11.150;2024-02-16T04:18:02;8.93;;;1.90;;
67544;SDS011;54380;47.770;11.150;2024-02-16T04:20:29;9.63;;;1.65;;
67544;SDS011;54380;47.770;11.150;2024-02-16T04:22:57;8.13;;;1.05;;
67544;SDS011;54380;47.770;11.150;2024-02-16T04:25:24;8.18;;;1.02;;
67544;SDS011;54380;47.770;11.150;2024-02-16T04:27:53;8.48;;;1.55;;
67544;SDS011;54380;47.770;11.150;2024-02-16T04:30:20;8.90;;;1.10;;
67544;SDS011;54380;47.770;11.150;2024-02-16T04:32:47;5.65;;;1.08;;
67544;SDS011;54380;47.770;11.150;2024-02-16T04:35:15;5.65;;;1.05;;
67544;SDS011;54380;47.770;11.150;2024-02-16T04:37:43;10.60;;;1.80;;
67544;SDS011;54380;47.770;11.150;2024-02-16T04:40:12;12.65;;;2.35;;
67544;SDS011;54380;47.770;11.150;2024-02-16T04:42:39;11.55;;;1.98;;
67544;SDS011;54380;47.770;11.150;2024-02-16T04:45:11;7.43;;;1.33;;
67544;SDS011;54380;47.770;11.150;2024-02-16T04:47:38;8.48;;;0.85;;
67544;SDS011;54380;47.770;11.150;2024-02-16T04:50:05;6.70;;;1.33;;
67544;SDS011;54380;47.770;11.150;2024-02-16T04:52:36;6.50;;;1.05;;
67544;SDS011;54380;47.770;11.150;2024-02-16T04:55:04;8.13;;;1.05;;
67544;SDS011;54380;47.770;11.150;2024-02-16T04:57:34;7.63;;;0.95;;
67544;SDS011;54380;47.770;11.150;2024-02-16T05:00:01;7.40;;;1.05;;
67544;SDS011;54380;47.770;11.150;2024-02-16T05:02:29;9.07;;;1.67;;
67544;SDS011;54380;47.770;11.150;2024-02-16T05:04:56;9.32;;;1.85;;
67544;SDS011;54380;47.770;11.150;2024-02-16T05:07:25;7.05;;;1.40;;
67544;SDS011;54380;47.770;11.150;2024-02-16T05:09:52;10.77;;;1.23;;
67544;SDS011;54380;47.770;11.150;2024-02-16T05:12:24;7.00;;;0.95;;
67544;SDS011;54380;47.770;11.150;2024-02-16T05:14:52;7.75;;;1.05;;
67544;SDS011;54380;47.770;11.150;2024-02-16T05:17:20;7.50;;;0.98;;
67544;SDS011;54380;47.770;11.150;2024-02-16T05:19:48;7.85;;;1.20;;
67544;SDS011;54380;47.770;11.150;2024-02-16T05:22:15;7.00;;;0.75;;
67544;SDS011;54380;47.770;11.150;2024-02-16T05:24:44;7.30;;;0.80;;
67544;SDS011;54380;47.770;11.150;2024-02-16T05:27:11;7.60;;;1.27;;
67544;SDS011;54380;47.770;11.150;2024-02-16T05:29:38;6.68;;;0.90;;
67544;SDS011;54380;47.770;11.150;2024-02-16T05:32:06;6.30;;;0.98;;
67544;SDS011;54380;47.770;11.150;2024-02-16T05:34:33;14.45;;;1.05;;
67544;SDS011;54380;47.770;11.150;2024-02-16T05:37:06;6.15;;;1.02;;
67544;SDS011;54380;47.770;11.150;2024-02-16T05:39:35;6.15;;;0.82;;
67544;SDS011;54380;47.770;11.150;2024-02-16T05:42:10;8.13;;;0.95;;
67544;SDS011;54380;47.770;11.150;2024-02-16T05:44:37;7.18;;;0.82;;
67544;SDS011;54380;47.770;11.150;2024-02-16T05:47:04;6.03;;;0.93;;
67544;SDS011;54380;47.770;11.150;2024-02-16T05:49:32;8.23;;;1.67;;
67544;SDS011;54380;47.770;11.150;2024-02-16T05:51:59;7.10;;;1.13;;
67544;SDS011;54380;47.770;11.150;2024-02-16T05:54:43;8.52;;;1.70;;
67544;SDS011;54380;47.770;11.150;2024-02-16T05:57:11;7.63;;;1.02;;
67544;SDS011;54380;47.770;11.150;2024-02-16T05:59:39;7.55;;;0.90;;
67544;SDS011;54380;47.770;11.150;2024-02-16T06:02:06;9.70;;;1.48;;
67544;SDS011;54380;47.770;11.150;2024-02-16T06:04:35;6.43;;;1.02;;
67544;SDS011;54380;47.770;11.150;2024-02-16T06:07:02;8.75;;;1.27;;
67544;SDS011;54380;47.770;11.150;2024-02-16T06:09:30;4.97;;;1.08;;
67544;SDS011;54380;47.770;11.150;2024-02-16T06:12:01;6.47;;;0.73;;
67544;SDS011;54380;47.770;11.150;2024-02-16T06:14:30;9.60;;;1.70;;
67544;SDS011;54380;47.770;11.150;2024-02-16T06:16:57;4.60;;;0.68;;
67544;SDS011;54380;47.770;11.150;2024-02-16T06:19:29;8.32;;;1.20;;
67544;SDS011;54380;47.770;11.150;2024-02-16T06:21:58;6.45;;;1.02;;
67544;SDS011;54380;47.770;11.150;2024-02-16T06:24:25;5.88;;;0.88;;
67544;SDS011;54380;47.770;11.150;2024-02-16T06:26:52;7.22;;;1.25;;
67544;SDS011;54380;47.770;11.150;2024-02-16T06:29:23;8.27;;;1.45;;
67544;SDS011;54380;47.770;11.150;2024-02-16T06:31:50;8.77;;;1.70;;
67544;SDS011;54380;47.770;11.150;2024-02-16T06:34:18;8.75;;;1.50;;
67544;SDS011;54380;47.770;11.150;2024-02-16T06:36:45;8.63;;;1.75;;
67544;SDS011;54380;47.770;11.150;2024-02-16T06:39:14;7.40;;;1.33;;
67544;SDS011;54380;47.770;11.150;2024-02-16T06:41:43;8.70;;;1.48;;
67544;SDS011;54380;47.770;11.150;2024-02-16T06:44:10;8.00;;;1.33;;
67544;SDS011;54380;47.770;11.150;2024-02-16T06:46:37;5.40;;;0.88;;
67544;SDS011;54380;47.770;11.150;2024-02-16T06:49:04;5.03;;;0.82;;
67544;SDS011;54380;47.770;11.150;2024-02-16T06:51:31;6.78;;;0.82;;
67544;SDS011;54380;47.770;11.150;2024-02-16T06:53:58;8.93;;;1.02;;
67544;SDS011;54380;47.770;11.150;2024-02-16T06:56:26;6.35;;;1.00;;
67544;SDS011;54380;47.770;11.150;2024-02-16T06:58:53;6.00;;;0.85;;
67544;SDS011;54380;47.770;11.150;2024-02-16T07:01:20;5.97;;;0.88;;
67544;SDS011;54380;47.770;11.150;2024-02-16T07:03:47;9.57;;;1.65;;
67544;SDS011;54380;47.770;11.150;2024-02-16T07:06:14;7.97;;;1.35;;
67544;SDS011;54380;47.770;11.150;2024-02-16T07:08:41;5.88;;;0.90;;
67544;SDS011;54380;47.770;11.150;2024-02-16T07:11:09;6.30;;;1.05;;
67544;SDS011;54380;47.770;11.150;2024-02-16T07:13:41;5.57;;;1.02;;
67544;SDS011;54380;47.770;11.150;2024-02-16T07:16:11;6.60;;;1.02;;
67544;SDS011;54380;47.770;11.150;2024-02-16T07:18:37;8.85;;;1.10;;
67544;SDS011;54380;47.770;11.150;2024-02-16T07:21:04;7.25;;;0.85;;
67544;SDS011;54380;47.770;11.150;2024-02-16T07:23:31;7.85;;;1.25;;
67544;SDS011;54380;47.770;11.150;2024-02-16T07:25:58;11.20;;;2.70;;
67544;SDS011;54380;47.770;11.150;2024-02-16T07:28:27;8.93;;;2.15;;
67544;SDS011;54380;47.770;11.150;2024-02-16T07:30:55;17.35;;;5.20;;
67544;SDS011;54380;47.770;11.150;2024-02-16T07:33:22;16.15;;;5.05;;
67544;SDS011;54380;47.770;11.150;2024-02-16T07:35:51;18.48;;;5.53;;
67544;SDS011;54380;47.770;11.150;2024-02-16T07:38:18;16.92;;;4.72;;
67544;SDS011;54380;47.770;11.150;2024-02-16T07:40:45;15.40;;;4.15;;
67544;SDS011;54380;47.770;11.150;2024-02-16T07:43:12;13.93;;;3.25;;
67544;SDS011;54380;47.770;11.150;2024-02-16T07:45:39;12.10;;;3.75;;
67544;SDS011;54380;47.770;11.150;2024-02-16T07:48:08;12.20;;;1.88;;
67544;SDS011;54380;47.770;11.150;2024-02-16T07:50:35;16.27;;;2.47;;
67544;SDS011;54380;47.770;11.150;2024-02-16T07:53:02;12.43;;;2.30;;
67544;SDS011;54380;47.770;11.150;2024-02-16T07:55:29;15.13;;;2.80;;
67544;SDS011;54380;47.770;11.150;2024-02-16T07:57:56;15.55;;;3.33;;
67544;SDS011;54380;47.770;11.150;2024-02-16T08:00:22;14.52;;;3.28;;
67544;SDS011;54380;47.770;11.150;2024-02-16T08:02:49;14.20;;;2.60;;
67544;SDS011;54380;47.770;11.150;2024-02-16T08:05:18;15.90;;;2.65;;
67544;SDS011;54380;47.770;11.150;2024-02-16T08:07:46;13.40;;;2.17;;
67544;SDS011;54380;47.770;11.150;2024-02-16T08:10:14;12.60;;;2.47;;
67544;SDS011;54380;47.770;11.150;2024-02-16T08:12:40;10.90;;;2.15;;
67544;SDS011;54380;47.770;11.150;2024-02-16T08:15:08;11.88;;;1.33;;
67544;SDS011;54380;47.770;11.150;2024-02-16T08:17:36;11.90;;;1.63;;
67544;SDS011;54380;47.770;11.150;2024-02-16T08:20:04;12.90;;;2.05;;
67544;SDS011;54380;47.770;11.150;2024-02-16T08:22:36;13.40;;;2.35;;
67544;SDS011;54380;47.770;11.150;2024-02-16T08:25:04;11.73;;;2.50;;
67544;SDS011;54380;47.770;11.150;2024-02-16T08:27:32;12.32;;;3.50;;
67544;SDS011;54380;47.770;11.150;2024-02-16T08:29:59;12.57;;;3.33;;
67544;SDS011;54380;47.770;11.150;2024-02-16T08:32:28;14.80;;;3.95;;
67544;SDS011;54380;47.770;11.150;2024-02-16T08:34:56;15.43;;;4.55;;
67544;SDS011;54380;47.770;11.150;2024-02-16T08:37:24;14.30;;;4.80;;
67544;SDS011;54380;47.770;11.150;2024-02-16T08:39:53;12.70;;;3.47;;
67544;SDS011;54380;47.770;11.150;2024-02-16T08:42:20;18.48;;;5.00;;
67544;SDS011;54380;47.770;11.150;2024-02-16T08:44:49;15.07;;;4.07;;
67544;SDS011;54380;47.770;11.150;2024-02-16T08:47:16;17.83;;;4.13;;
67544;SDS011;54380;47.770;11.150;2024-02-16T08:49:43;16.95;;;3.75;;
67544;SDS011;54380;47.770;11.150;2024-02-16T08:52:10;12.90;;;1.90;;
67544;SDS011;54380;47.770;11.150;2024-02-16T08:54:36;8.75;;;1.30;;
67544;SDS011;54380;47.770;11.150;2024-02-16T08:57:05;8.68;;;1.23;;
67544;SDS011;54380;47.770;11.150;2024-02-16T08:59:32;3.85;;;0.65;;
67544;SDS011;54380;47.770;11.150;2024-02-16T09:02:01;4.60;;;0.82;;
67544;SDS011;54380;47.770;11.150;2024-02-16T09:04:27;3.53;;;0.50;;
67544;SDS011;54380;47.770;11.150;2024-02-16T09:06:54;3.63;;;0.73;;
67544;SDS011;54380;47.770;11.150;2024-02-16T09:09:21;4.07;;;0.50;;
67544;SDS011;54380;47.770;11.150;2024-02-16T09:11:49;2.92;;;0.45;;
67544;SDS011;54380;47.770;11.150;2024-02-16T09:14:17;2.65;;;0.43;;
67544;SDS011;54380;47.770;11.150;2024-02-16T09:16:45;4.40;;;0.50;;
67544;SDS011;54380;47.770;11.150;2024-02-16T09:19:14;3.28;;;0.50;;
67544;SDS011;54380;47.770;11.150;2024-02-16T09:21:41;4.47;;;0.35;;
67544;SDS011;54380;47.770;11.150;2024-02-16T09:24:08;5.47;;;1.15;;
67544;SDS011;54380;47.770;11.150;2024-02-16T09:26:37;3.88;;;0.50;;
67544;SDS011;54380;47.770;11.150;2024-02-16T09:29:04;4.50;;;0.50;;
67544;SDS011;54380;47.770;11.150;2024-02-16T09:31:33;3.15;;;0.40;;
67544;SDS011;54380;47.770;11.150;2024-02-16T09:33:59;2.72;;;0.38;;
67544;SDS011;54380;47.770;11.150;2024-02-16T09:36:26;3.92;;;0.40;;
67544;SDS011;54380;47.770;11.150;2024-02-16T09:38:53;3.78;;;0.88;;
67544;SDS011;54380;47.770;11.150;2024-02-16T09:41:20;3.63;;;0.50;;
67544;SDS011;54380;47.770;11.150;2024-02-16T09:43:50;4.70;;;0.65;;
67544;SDS011;54380;47.770;11.150;2024-02-16T09:46:20;3.50;;;0.35;;
67544;SDS011;54380;47.770;11.150;2024-02-16T09:48:49;3.80;;;0.73;;
67544;SDS011;54380;47.770;11.150;2024-02-16T09:51:19;5.53;;;0.40;;
67544;SDS011;54380;47.770;11.150;2024-02-16T09:53:49;3.25;;;0.50;;
67544;SDS011;54380;47.770;11.150;2024-02-16T09:56:25;2.58;;;0.60;;
67544;SDS011;54380;47.770;11.150;2024-02-16T09:58:51;3.00;;;0.40;;
67544;SDS011;54380;47.770;11.150;2024-02-16T10:01:19;2.65;;;0.40;;
67544;SDS011;54380;47.770;11.150;2024-02-16T18:43:06;15.15;;;4.53;;
67544;SDS011;54380;47.770;11.150;2024-02-16T18:45:33;21.70;;;6.05;;
67544;SDS011;54380;47.770;11.150;2024-02-16T18:48:00;18.95;;;6.03;;
67544;SDS011;54380;47.770;11.150;2024-02-16T18:50:27;18.80;;;5.05;;
67544;SDS011;54380;47.770;11.150;2024-02-16T18:52:54;11.93;;;3.85;;
67544;SDS011;54380;47.770;11.150;2024-02-16T18:55:21;10.77;;;2.35;;
67544;SDS011;54380;47.770;11.150;2024-02-16T18:57:49;15.85;;;3.55;;
67544;SDS011;54380;47.770;11.150;2024-02-16T19:00:16;14.07;;;3.65;;
67544;SDS011;54380;47.770;11.150;2024-02-16T19:02:43;14.10;;;3.40;;
67544;SDS011;54380;47.770;11.150;2024-02-16T19:05:10;15.48;;;3.25;;
67544;SDS011;54380;47.770;11.150;2024-02-16T19:07:37;15.65;;;3.30;;
67544;SDS011;54380;47.770;11.150;2024-02-16T19:10:05;12.30;;;3.17;;
67544;SDS011;54380;47.770;11.150;2024-02-16T19:12:33;15.77;;;3.40;;
67544;SDS011;54380;47.770;11.150;2024-02-16T19:15:02;15.00;;;5.05;;
67544;SDS011;54380;47.770;11.150;2024-02-16T19:17:33;14.65;;;4.25;;
67544;SDS011;54380;47.770;11.150;2024-02-16T19:20:01;17.40;;;5.30;;
67544;SDS011;54380;47.770;11.150;2024-02-16T19:22:30;19.52;;;5.40;;
67544;SDS011;54380;47.770;11.150;2024-02-16T19:24:57;15.80;;;4.70;;
67544;SDS011;54380;47.770;11.150;2024-02-16T19:27:24;19.20;;;6.97;;
67544;SDS011;54380;47.770;11.150;2024-02-16T19:29:52;23.98;;;7.35;;
67544;SDS011;54380;47.770;11.150;2024-02-16T19:32:22;20.95;;;6.35;;
67544;SDS011;54380;47.770;11.150;2024-02-16T19:34:49;26.73;;;8.25;;
67544;SDS011;54380;47.770;11.150;2024-02-16T19:37:15;29.10;;;9.77;;
67544;SDS011;54380;47.770;11.150;2024-02-16T19:39:42;24.95;;;10.68;;
67544;SDS011;54380;47.770;11.150;2024-02-16T19:42:09;29.27;;;10.82;;
67544;SDS011;54380;47.770;11.150;2024-02-16T19:44:36;30.65;;;11.13;;
67544;SDS011;54380;47.770;11.150;2024-02-16T19:47:03;28.10;;;9.93;;
67544;SDS011;54380;47.770;11.150;2024-02-16T19:49:32;26.13;;;9.65;;
67544;SDS011;54380;47.770;11.150;2024-02-16T19:51:59;33.65;;;12.55;;
67544;SDS011;54380;47.770;11.150;2024-02-16T19:54:26;26.75;;;11.50;;
67544;SDS011;54380;47.770;11.150;2024-02-16T19:56:53;29.92;;;10.15;;
67544;SDS011;54380;47.770;11.150;2024-02-16T19:59:20;23.45;;;8.80;;
67544;SDS011;54380;47.770;11.150;2024-02-16T20:01:47;21.10;;;6.75;;
67544;SDS011;54380;47.770;11.150;2024-02-16T20:04:14;22.63;;;7.00;;
67544;SDS011;54380;47.770;11.150;2024-02-16T20:06:42;19.10;;;6.25;;
67544;SDS011;54380;47.770;11.150;2024-02-16T20:09:09;19.50;;;5.65;;
67544;SDS011;54380;47.770;11.150;2024-02-16T20:11:38;18.50;;;5.35;;
67544;SDS011;54380;47.770;11.150;2024-02-16T20:14:05;20.30;;;6.68;;
67544;SDS011;54380;47.770;11.150;2024-02-16T20:16:35;24.48;;;7.07;;
67544;SDS011;54380;47.770;11.150;2024-02-16T20:19:04;17.42;;;5.65;;
67544;SDS011;54380;47.770;11.150;2024-02-16T20:21:32;17.85;;;4.53;;
67544;SDS011;54380;47.770;11.150;2024-02-16T20:24:01;17.38;;;4.22;;
67544;SDS011;54380;47.770;11.150;2024-02-16T20:26:29;22.35;;;6.03;;
67544;SDS011;54380;47.770;11.150;2024-02-16T20:28:57;21.75;;;7.18;;
67544;SDS011;54380;47.770;11.150;2024-02-16T20:31:24;20.75;;;4.65;;
67544;SDS011;54380;47.770;11.150;2024-02-16T20:33:51;17.73;;;4.22;;
67544;SDS011;54380;47.770;11.150;2024-02-16T20:36:18;15.85;;;3.10;;
67544;SDS011;54380;47.770;11.150;2024-02-16T20:38:45;15.48;;;4.07;;
67544;SDS011;54380;47.770;11.150;2024-02-16T20:41:15;13.95;;;3.53;;
67544;SDS011;54380;47.770;11.150;2024-02-16T20:43:42;16.42;;;3.60;;
67544;SDS011;54380;47.770;11.150;2024-02-16T20:46:09;14.30;;;4.20;;
67544;SDS011;54380;47.770;11.150;2024-02-16T20:48:37;13.50;;;4.25;;
67544;SDS011;54380;47.770;11.150;2024-02-16T20:51:04;17.38;;;3.60;;
67544;SDS011;54380;47.770;11.150;2024-02-16T20:53:31;14.40;;;3.65;;
67544;SDS011;54380;47.770;11.150;2024-02-16T20:55:57;11.57;;;2.53;;
67544;SDS011;54380;47.770;11.150;2024-02-16T20:58:26;22.42;;;3.88;;
67544;SDS011;54380;47.770;11.150;2024-02-16T21:00:52;16.73;;;5.05;;
67544;SDS011;54380;47.770;11.150;2024-02-16T21:03:19;24.55;;;4.13;;
67544;SDS011;54380;47.770;11.150;2024-02-16T21:05:46;17.45;;;3.75;;
67544;SDS011;54380;47.770;11.150;2024-02-16T21:08:13;14.18;;;3.70;;
67544;SDS011;54380;47.770;11.150;2024-02-16T21:10:40;19.92;;;4.40;;
67544;SDS011;54380;47.770;11.150;2024-02-16T21:13:07;17.25;;;3.22;;
67544;SDS011;54380;47.770;11.150;2024-02-16T21:15:35;15.82;;;3.15;;
67544;SDS011;54380;47.770;11.150;2024-02-16T21:18:02;16.63;;;2.58;;
67544;SDS011;54380;47.770;11.150;2024-02-16T21:20:30;14.23;;;2.00;;
67544;SDS011;54380;47.770;11.150;2024-02-16T21:22:56;12.07;;;2.00;;
67544;SDS011;54380;47.770;11.150;2024-02-16T21:25:26;14.05;;;3.42;;
67544;SDS011;54380;47.770;11.150;2024-02-16T21:27:53;9.90;;;2.08;;
67544;SDS011;54380;47.770;11.150;2024-02-16T21:30:19;8.23;;;1.55;;
67544;SDS011;54380;47.770;11.150;2024-02-16T21:32:48;8.35;;;1.35;;
67544;SDS011;54380;47.770;11.150;2024-02-16T21:35:17;8.77;;;1.35;;
67544;SDS011;54380;47.770;11.150;2024-02-16T21:37:46;11.07;;;1.52;;
67544;SDS011;54380;47.770;11.150;2024-02-16T21:40:14;9.93;;;1.30;;
67544;SDS011;54380;47.770;11.150;2024-02-16T21:42:42;13.35;;;1.52;;
67544;SDS011;54380;47.770;11.150;2024-02-16T21:45:09;10.43;;;1.25;;
67544;SDS011;54380;47.770;11.150;2024-02-16T21:47:36;10.90;;;1.25;;
67544;SDS011;54380;47.770;11.150;2024-02-16T21:50:06;10.35;;;1.52;;
67544;SDS011;54380;47.770;11.150;2024-02-16T21:52:33;7.20;;;0.98;;
67544;SDS011;54380;47.770;11.150;2024-02-16T21:55:00;8.15;;;1.33;;
67544;SDS011;54380;47.770;11.150;2024-02-16T21:57:27;9.57;;;1.35;;
67544;SDS011;54380;47.770;11.150;2024-02-16T21:59:54;8.60;;;1.50;;
67544;SDS011;54380;47.770;11.150;2024-02-16T22:02:21;13.52;;;2.08;;
67544;SDS011;54380;47.770;11.150;2024-02-16T22:04:49;13.90;;;3.65;;
67544;SDS011;54380;47.770;11.150;2024-02-16T22:07:17;12.35;;;1.95;;
67544;SDS011;54380;47.770;11.150;2024-02-16T22:09:44;20.73;;;1.75;;
67544;SDS011;54380;47.770;11.150;2024-02-16T22:12:11;13.68;;;1.90;;
67544;SDS011;54380;47.770;11.150;2024-02-16T22:14:38;12.18;;;3.22;;
67544;SDS011;54380;47.770;11.150;2024-02-16T22:17:05;18.95;;;4.82;;
67544;SDS011;54380;47.770;11.150;2024-02-16T22:19:33;16.27;;;5.18;;
67544;SDS011;54380;47.770;11.150;2024-02-16T22:21:59;17.05;;;5.60;;
67544;SDS011;54380;47.770;11.150;2024-02-16T22:24:29;20.85;;;6.47;;
67544;SDS011;54380;47.770;11.150;2024-02-16T22:26:56;20.35;;;6.03;;
67544;SDS011;54380;47.770;11.150;2024-02-16T22:29:23;17.85;;;5.55;;
67544;SDS011;54380;47.770;11.150;2024-02-16T22:31:50;18.90;;;6.60;;
67544;SDS011;54380;47.770;11.150;2024-02-16T22:34:30;24.17;;;7.63;;
67544;SDS011;54380;47.770;11.150;2024-02-16T22:36:57;17.17;;;7.07;;
67544;SDS011;54380;47.770;11.150;2024-02-16T22:39:24;18.65;;;7.70;;
67544;SDS011;54380;47.770;11.150;2024-02-16T22:41:52;21.42;;;7.00;;
67544;SDS011;54380;47.770;11.150;2024-02-16T22:44:19;18.80;;;6.40;;
67544;SDS011;54380;47.770;11.150;2024-02-16T22:46:46;20.08;;;5.82;;
67544;SDS011;54380;47.770;11.150;2024-02-16T22:49:13;16.83;;;5.90;;
67544;SDS011;54380;47.770;11.150;2024-02-16T22:51:40;19.48;;;6.03;;
67544;SDS011;54380;47.770;11.150;2024-02-16T22:54:14;17.10;;;5.88;;
67544;SDS011;54380;47.770;11.150;2024-02-16T22:56:42;21.88;;;5.22;;
67544;SDS011;54380;47.770;11.150;2024-02-16T22:59:10;14.50;;;4.22;;
67544;SDS011;54380;47.770;11.150;2024-02-16T23:01:37;16.85;;;3.88;;
67544;SDS011;54380;47.770;11.150;2024-02-16T23:04:05;14.50;;;3.63;;
67544;SDS011;54380;47.770;11.150;2024-02-16T23:06:34;14.85;;;3.75;;
67544;SDS011;54380;47.770;11.150;2024-02-16T23:09:02;14.75;;;3.72;;
67544;SDS011;54380;47.770;11.150;2024-02-16T23:11:34;15.05;;;3.35;;
67544;SDS011;54380;47.770;11.150;2024-02-16T23:14:01;17.42;;;4.13;;